Time;durP1;ratioP1;P1;durP2;ratioP2;P2;SDS_P1;SDS_P2;PMS_P1;PMS_P2;Temp;Humidity;BMP_temperature;BMP_pressure;BME280_temperature;BME280_humidity;BME280_pressure;Samples;Min_cycle;Max_cycle;Signal;HPM_P1;HPM_P2
2023/01/13 00:01:56;;;;;;;;;;;;;;;;;;4978035;28;19906;-77
2023/01/13 00:04:22;;;;;;;;;;;;;;;;;;4978111;28;19949;-77
2023/01/13 00:06:48;;;;;;;;;;;;;;;;;;4982882;28;19906;-77
2023/01/13 00:09:14;;;;;;;;;;;;;;;;;;4976574;28;19906;-77
2023/01/13 00:11:40;;;;;;;;;;;;;;;;;;4976602;28;19921;-77
2023/01/13 00:14:06;;;;;;;;;;;;;;;;;;4977627;28;19906;-77
2023/01/13 00:16:32;;;;;;;;;;;;;;;;;;4978057;28;19914;-78
2023/01/13 00:18:58;;;;;;;;;;;;;;;;;;4977070;28;19918;-77
2023/01/13 00:21:24;;;;;;;;;;;;;;;;;;4978474;28;20326;-78
2023/01/13 00:23:50;;;;;;;;;;;;;;;;;;4978076;28;19914;-78
2023/01/13 00:26:16;;;;;;;;;;;;;;;;;;4978314;28;19956;-77
2023/01/13 00:28:42;;;;;;;;;;;;;;;;;;4978216;28;19918;-79
2023/01/13 00:31:08;;;;;;;;;;;;;;;;;;4977603;28;19906;-77
2023/01/13 00:33:34;;;;;;;;;;;;;;;;;;4981701;28;19907;-78
2023/01/13 00:36:00;;;;;;;;;;;;;;;;;;5008806;28;19977;-77
2023/01/13 00:38:26;;;;;;;;;;;;;;;;;;5003356;28;19917;-78
2023/01/13 00:40:52;;;;;;;;;;;;;;;;;;4989307;28;19894;-77
2023/01/13 00:43:24;;;;;;;;;;;;;;;;;;4989193;28;19902;-78
2023/01/13 00:45:50;;;;;;;;;;;;;;;;;;4985998;28;19906;-78
2023/01/13 00:48:17;;;;;;;;;;;;;;;;;;4991912;28;19901;-78
2023/01/13 00:50:43;;;;;;;;;;;;;;;;;;4988350;28;19914;-78
2023/01/13 00:53:09;;;;;;;;;;;;;;;;;;4984523;28;19916;-79
2023/01/13 00:55:35;;;;;;;;;;;;;;;;;;4979763;28;19914;-77
2023/01/13 00:58:04;;;;;;;;;;;;;;;;;;4978441;28;19928;-78
2023/01/13 01:00:30;;;;;;;;;;;;;;;;;;4979280;28;20049;-77
2023/01/13 01:02:56;;;;;;;;;;;;;;;;;;4977946;28;19945;-77
2023/01/13 01:05:22;;;;;;;;;;;;;;;;;;4988219;28;19943;-77
2023/01/13 01:07:48;;;;;;;;;;;;;;;;;;5005346;28;19929;-76
2023/01/13 01:10:14;;;;;;;;;;;;;;;;;;4998952;28;19918;-77
2023/01/13 01:12:40;;;;;;;;;;;;;;;;;;4981664;28;19910;-77
2023/01/13 01:15:08;;;;;;;;;;;;;;;;;;4981481;28;19906;-77
2023/01/13 01:17:34;;;;;;;;;;;;;;;;;;4978159;28;19933;-77
2023/01/13 01:20:00;;;;;;;;;;;;;;;;;;4979741;28;19910;-77
2023/01/13 01:22:25;;;;;;;;;;;;;;;;;;4977859;28;20335;-77
2023/01/13 01:24:51;;;;;;;;;;;;;;;;;;4978821;28;19929;-78
2023/01/13 01:27:17;;;;;;;;;;;;;;;;;;4990101;28;20074;-77
2023/01/13 01:29:43;;;;;;;;;;;;;;;;;;4981629;28;19993;-77
2023/01/13 01:32:09;;;;;;;;;;;;;;;;;;4980505;28;19906;-77
2023/01/13 01:34:35;;;;;;;;;;;;;;;;;;4989074;28;19913;-76
2023/01/13 01:37:01;;;;;;;;;;;;;;;;;;4990605;28;19910;-77
2023/01/13 01:39:27;;;;;;;;;;;;;;;;;;5002843;28;20269;-77
2023/01/13 01:44:38;;;;;;;;;;;;;;;;;;4995611;28;19953;-78
2023/01/13 01:47:04;;;;;;;;;;;;;;;;;;4993337;28;19914;-78
2023/01/13 01:49:30;;;;;;;;;;;;;;;;;;4989576;28;19937;-78
2023/01/13 01:51:56;;;;;;;;;;;;;;;;;;4989570;28;19894;-78
2023/01/13 01:54:22;;;;;;;;;;;;;;;;;;4980888;28;19906;-78
2023/01/13 01:56:48;;;;;;;;;;;;;;;;;;4976922;28;20298;-78
2023/01/13 01:59:14;;;;;;;;;;;;;;;;;;4976688;28;20298;-78
2023/01/13 02:01:40;;;;;;;;;;;;;;;;;;4979138;28;19908;-78
2023/01/13 02:04:06;;;;;;;;;;;;;;;;;;4981475;28;19910;-77
2023/01/13 02:06:32;;;;;;;;;;;;;;;;;;4982095;28;19906;-78
2023/01/13 02:08:57;;;;;;;;;;;;;;;;;;4978607;28;19913;-78
2023/01/13 02:12:28;;;;;;;;;;;;;;;;;;4983995;28;19921;-77
2023/01/13 02:14:09;;;;;;;;;;;;;;;;;;4986229;28;19910;-78
2023/01/13 02:16:35;;;;;;;;;;;;;;;;;;4977306;28;19949;-77
2023/01/13 02:19:01;;;;;;;;;;;;;;;;;;4977037;28;20189;-77
2023/01/13 02:21:27;;;;;;;;;;;;;;;;;;4976482;28;20006;-78
2023/01/13 02:26:38;;;;;;;;;;;;;;;;;;4978897;28;19925;-78
2023/01/13 02:31:48;;;;;;;;;;;;;;;;;;4977399;28;19920;-78
2023/01/13 02:34:14;;;;;;;;;;;;;;;;;;4984709;28;19964;-78
2023/01/13 02:36:40;;;;;;;;;;;;;;;;;;4982265;28;19910;-78
2023/01/13 02:39:06;;;;;;;;;;;;;;;;;;4978720;28;19917;-77
2023/01/13 02:44:17;;;;;;;;;;;;;;;;;;4979031;28;19985;-77
2023/01/13 02:46:43;;;;;;;;;;;;;;;;;;4977986;28;20315;-78
2023/01/13 02:49:09;;;;;;;;;;;;;;;;;;4977553;28;19914;-78
2023/01/13 02:51:35;;;;;;;;;;;;;;;;;;4981504;28;19910;-78
2023/01/13 02:54:01;;;;;;;;;;;;;;;;;;4978606;28;19957;-77
2023/01/13 02:56:27;;;;;;;;;;;;;;;;;;4978115;28;20290;-78
2023/01/13 02:58:53;;;;;;;;;;;;;;;;;;4980546;28;19961;-78
2023/01/13 03:01:19;;;;;;;;;;;;;;;;;;4980771;28;19985;-78
2023/01/13 03:03:45;;;;;;;;;;;;;;;;;;4980181;28;19910;-78
2023/01/13 03:06:12;;;;;;;;;;;;;;;;;;4999111;28;19914;-78
2023/01/13 03:08:41;;;;;;;;;;;;;;;;;;4999660;28;19974;-76
2023/01/13 03:11:07;;;;;;;;;;;;;;;;;;5000275;28;20003;-77
2023/01/13 03:13:33;;;;;;;;;;;;;;;;;;4993040;28;19917;-78
2023/01/13 03:16:00;;;;;;;;;;;;;;;;;;4980310;28;20335;-77
2023/01/13 03:18:25;;;;;;;;;;;;;;;;;;4979210;28;20386;-77
2023/01/13 03:20:51;;;;;;;;;;;;;;;;;;4980198;28;19918;-77
2023/01/13 03:23:17;;;;;;;;;;;;;;;;;;4982725;28;19894;-78
2023/01/13 03:25:43;;;;;;;;;;;;;;;;;;4979450;28;20038;-78
2023/01/13 03:28:09;;;;;;;;;;;;;;;;;;4979544;28;20264;-77
2023/01/13 03:30:35;;;;;;;;;;;;;;;;;;4976894;28;20314;-78
2023/01/13 03:33:01;;;;;;;;;;;;;;;;;;4982135;28;20058;-78
2023/01/13 03:35:27;;;;;;;;;;;;;;;;;;4986385;28;19910;-78
2023/01/13 03:37:53;;;;;;;;;;;;;;;;;;4981273;28;19910;-77
2023/01/13 03:40:19;;;;;;;;;;;;;;;;;;4983761;28;20104;-78
2023/01/13 03:44:20;;;;;;;;;;;;;;;;;;4999081;28;19898;-76
2023/01/13 03:45:31;;;;;;;;;;;;;;;;;;4979190;28;19910;-78
2023/01/13 03:47:57;;;;;;;;;;;;;;;;;;4978511;28;19952;-78
2023/01/13 03:50:23;;;;;;;;;;;;;;;;;;4978557;28;19906;-77
2023/01/13 03:52:49;;;;;;;;;;;;;;;;;;4977156;28;19963;-78
2023/01/13 03:55:15;;;;;;;;;;;;;;;;;;4977904;28;19917;-78
2023/01/13 03:57:40;;;;;;;;;;;;;;;;;;4981201;28;19910;-78
2023/01/13 04:00:08;;;;;;;;;;;;;;;;;;4977888;28;19922;-78
2023/01/13 04:02:34;;;;;;;;;;;;;;;;;;4978876;28;19902;-78
2023/01/13 04:05:00;;;;;;;;;;;;;;;;;;4984795;28;20009;-77
2023/01/13 04:07:26;;;;;;;;;;;;;;;;;;4995515;28;19906;-78
2023/01/13 04:09:52;;;;;;;;;;;;;;;;;;4998009;28;20366;-77
2023/01/13 04:12:18;;;;;;;;;;;;;;;;;;5000836;28;19917;-77
2023/01/13 04:14:44;;;;;;;;;;;;;;;;;;4998610;28;19905;-78
2023/01/13 04:17:10;;;;;;;;;;;;;;;;;;4980864;28;19910;-78
2023/01/13 04:19:36;;;;;;;;;;;;;;;;;;4978247;28;20319;-78
2023/01/13 04:22:02;;;;;;;;;;;;;;;;;;4979074;28;19928;-77
2023/01/13 04:24:28;;;;;;;;;;;;;;;;;;4976544;28;19910;-77
2023/01/13 04:26:55;;;;;;;;;;;;;;;;;;4977054;28;19913;-78
2023/01/13 04:29:21;;;;;;;;;;;;;;;;;;4978047;28;19906;-78
2023/01/13 04:31:47;;;;;;;;;;;;;;;;;;4977091;28;19906;-78
2023/01/13 04:34:13;;;;;;;;;;;;;;;;;;4982845;28;19949;-78
2023/01/13 04:36:39;;;;;;;;;;;;;;;;;;4984832;28;19972;-78
2023/01/13 04:39:05;;;;;;;;;;;;;;;;;;4978484;28;19906;-78
2023/01/13 04:41:56;;;;;;;;;;;;;;;;;;4978874;28;20260;-78
2023/01/13 04:44:16;;;;;;;;;;;;;;;;;;4979326;28;19906;-78
2023/01/13 04:46:42;;;;;;;;;;;;;;;;;;4978517;28;19952;-78
2023/01/13 04:49:08;;;;;;;;;;;;;;;;;;4979151;28;19918;-78
2023/01/13 04:51:34;;;;;;;;;;;;;;;;;;4979235;28;19906;-77
2023/01/13 04:54:00;;;;;;;;;;;;;;;;;;4977607;28;19917;-78
2023/01/13 04:56:26;;;;;;;;;;;;;;;;;;4976706;28;19922;-78
2023/01/13 04:58:52;;;;;;;;;;;;;;;;;;4980690;28;19959;-78
2023/01/13 05:01:19;;;;;;;;;;;;;;;;;;4979280;28;19898;-78
2023/01/13 05:03:45;;;;;;;;;;;;;;;;;;4978280;28;19917;-78
2023/01/13 05:06:11;;;;;;;;;;;;;;;;;;4986309;28;19913;-78
2023/01/13 05:08:37;;;;;;;;;;;;;;;;;;4977242;28;20398;-78
2023/01/13 05:16:58;;;;;;;;;;;;;;;;;;4978144;28;19906;-78
2023/01/13 05:19:19;;;;;;;;;;;;;;;;;;4976996;28;20000;-77
2023/01/13 05:27:14;;;;;;;;;;;;;;;;;;4977914;28;20409;-77
2023/01/13 05:29:40;;;;;;;;;;;;;;;;;;4976007;28;19902;-78
2023/01/13 05:32:07;;;;;;;;;;;;;;;;;;4979594;28;19903;-79
2023/01/13 05:34:33;;;;;;;;;;;;;;;;;;4981137;28;19954;-77
2023/01/13 05:36:59;;;;;;;;;;;;;;;;;;4980729;28;20012;-77
2023/01/13 05:39:25;;;;;;;;;;;;;;;;;;4988717;28;19906;-77
2023/01/13 05:44:35;;;;;;;;;;;;;;;;;;4975737;28;19913;-77
2023/01/13 05:47:01;;;;;;;;;;;;;;;;;;4978253;28;19910;-77
2023/01/13 05:49:27;;;;;;;;;;;;;;;;;;4975595;28;19906;-77
2023/01/13 05:51:53;;;;;;;;;;;;;;;;;;4975070;28;19956;-78
2023/01/13 05:54:19;;;;;;;;;;;;;;;;;;4980652;28;19916;-77
2023/01/13 05:56:45;;;;;;;;;;;;;;;;;;4978959;28;19929;-77
2023/01/13 05:59:11;;;;;;;;;;;;;;;;;;4975907;28;20442;-78
2023/01/13 06:01:37;;;;;;;;;;;;;;;;;;4978023;28;20001;-78
2023/01/13 06:04:03;;;;;;;;;;;;;;;;;;4981018;28;19906;-76
2023/01/13 06:06:29;;;;;;;;;;;;;;;;;;4987982;28;19914;-77
2023/01/13 06:08:55;;;;;;;;;;;;;;;;;;4985508;28;19910;-77
2023/01/13 06:11:21;;;;;;;;;;;;;;;;;;4982882;28;19938;-77
2023/01/13 06:13:47;;;;;;;;;;;;;;;;;;4978753;28;19906;-76
2023/01/13 06:16:13;;;;;;;;;;;;;;;;;;4978550;28;19972;-77
2023/01/13 06:18:39;;;;;;;;;;;;;;;;;;4979212;28;19898;-78
2023/01/13 06:21:04;;;;;;;;;;;;;;;;;;4982767;28;19910;-78
2023/01/13 06:23:33;;;;;;;;;;;;;;;;;;4978970;28;19945;-78
2023/01/13 06:25:59;;;;;;;;;;;;;;;;;;4976186;28;19910;-78
2023/01/13 06:28:25;;;;;;;;;;;;;;;;;;4979053;28;19941;-77
2023/01/13 06:30:51;;;;;;;;;;;;;;;;;;4980958;28;19910;-77
2023/01/13 06:33:17;;;;;;;;;;;;;;;;;;4979605;28;19941;-77
2023/01/13 06:35:43;;;;;;;;;;;;;;;;;;4988524;28;19914;-77
2023/01/13 06:38:09;;;;;;;;;;;;;;;;;;4997366;28;20300;-78
2023/01/13 06:40:35;;;;;;;;;;;;;;;;;;4987104;28;19906;-77
2023/01/13 06:43:13;;;;;;;;;;;;;;;;;;4978644;28;19906;-77
2023/01/13 06:45:39;;;;;;;;;;;;;;;;;;4979659;28;19910;-77
2023/01/13 06:48:05;;;;;;;;;;;;;;;;;;4982292;28;20049;-78
2023/01/13 06:50:31;;;;;;;;;;;;;;;;;;4980369;28;20052;-77
2023/01/13 06:52:57;;;;;;;;;;;;;;;;;;4982184;28;19913;-77
2023/01/13 06:55:23;;;;;;;;;;;;;;;;;;4980110;28;19982;-75
2023/01/13 06:57:49;;;;;;;;;;;;;;;;;;4984346;28;19942;-77
2023/01/13 07:00:15;;;;;;;;;;;;;;;;;;4989201;28;20389;-77
2023/01/13 07:02:41;;;;;;;;;;;;;;;;;;4991116;28;19910;-77
2023/01/13 07:05:07;;;;;;;;;;;;;;;;;;5000927;28;19890;-77
2023/01/13 07:07:33;;;;;;;;;;;;;;;;;;4990613;28;20358;-76
2023/01/13 07:09:59;;;;;;;;;;;;;;;;;;4989618;28;19987;-76
2023/01/13 07:12:25;;;;;;;;;;;;;;;;;;4985394;28;19906;-77
2023/01/13 07:17:36;;;;;;;;;;;;;;;;;;4959605;28;19917;-77
2023/01/13 07:20:01;;;;;;;;;;;;;;;;;;4959460;29;19970;-78
2023/01/13 07:22:27;;;;;;;;;;;;;;;;;;4959994;28;19914;-78
2023/01/13 07:24:53;;;;;;;;;;;;;;;;;;4963570;29;19906;-79
2023/01/13 07:27:19;;;;;;;;;;;;;;;;;;4958977;29;19929;-78
2023/01/13 07:29:45;;;;;;;;;;;;;;;;;;4959315;29;19974;-78
2023/01/13 07:32:11;;;;;;;;;;;;;;;;;;4959845;29;19911;-77
2023/01/13 07:34:37;;;;;;;;;;;;;;;;;;4976897;28;19917;-78
2023/01/13 07:37:03;;;;;;;;;;;;;;;;;;5006923;28;19910;-78
2023/01/13 07:39:29;;;;;;;;;;;;;;;;;;5011168;28;19910;-77
2023/01/13 07:44:40;;;;;;;;;;;;;;;;;;4996652;28;20397;-78
2023/01/13 07:47:07;;;;;;;;;;;;;;;;;;4984217;28;19910;-81
2023/01/13 07:49:33;;;;;;;;;;;;;;;;;;4985098;28;19964;-80
2023/01/13 07:51:59;;;;;;;;;;;;;;;;;;4984585;28;19969;-79
2023/01/13 07:54:25;;;;;;;;;;;;;;;;;;4979840;28;19921;-79
2023/01/13 07:56:51;;;;;;;;;;;;;;;;;;4965347;29;19910;-77
2023/01/13 07:59:23;;;;;;;;;;;;;;;;;;4966002;28;19902;-78
2023/01/13 08:01:49;;;;;;;;;;;;;;;;;;4968579;29;19933;-78
2023/01/13 08:04:15;;;;;;;;;;;;;;;;;;4978254;28;19993;-80
2023/01/13 08:06:41;;;;;;;;;;;;;;;;;;4997204;28;19906;-78
2023/01/13 08:09:07;;;;;;;;;;;;;;;;;;5006426;28;19996;-79
2023/01/13 08:11:40;;;;;;;;;;;;;;;;;;5008707;28;19957;-80
2023/01/13 08:14:06;;;;;;;;;;;;;;;;;;5007906;28;19906;-79
2023/01/13 08:16:35;;;;;;;;;;;;;;;;;;5012260;28;19910;-79
2023/01/13 08:19:01;;;;;;;;;;;;;;;;;;5011290;28;20382;-78
2023/01/13 08:21:27;;;;;;;;;;;;;;;;;;5013692;28;19906;-78
2023/01/13 08:23:53;;;;;;;;;;;;;;;;;;5009377;28;19905;-78
2023/01/13 08:26:19;;;;;;;;;;;;;;;;;;4997619;28;19990;-77
2023/01/13 08:28:45;;;;;;;;;;;;;;;;;;4985075;28;20415;-78
2023/01/13 08:32:30;;;;;;;;;;;;;;;;;;4891926;28;90942;-77
2023/01/13 08:34:56;;;;;;;;;;;;;;;;;;5044934;28;19956;-80
2023/01/13 08:37:22;;;;;;;;;;;;;;;;;;4898344;28;161954;-80
2023/01/13 08:39:48;;;;;;;;;;;;;;;;;;4986860;28;19917;-79
2023/01/13 08:42:14;;;;;;;;;;;;;;;;;;5051900;28;20046;-79
2023/01/13 08:44:40;;;;;;;;;;;;;;;;;;5019405;28;19909;-80
2023/01/13 08:47:06;;;;;;;;;;;;;;;;;;5001166;28;20035;-81
2023/01/13 08:49:32;;;;;;;;;;;;;;;;;;5057549;28;19914;-81
2023/01/13 08:52:04;;;;;;;;;;;;;;;;;;5039439;28;20401;-83
2023/01/13 08:54:30;;;;;;;;;;;;;;;;;;5040128;28;20296;-81
2023/01/13 08:56:56;;;;;;;;;;;;;;;;;;5038937;28;19920;-81
2023/01/13 08:59:22;;;;;;;;;;;;;;;;;;5039266;28;19917;-80
2023/01/13 09:01:48;;;;;;;;;;;;;;;;;;5040139;28;19916;-80
2023/01/13 09:04:14;;;;;;;;;;;;;;;;;;5043617;28;19910;-80
2023/01/13 09:06:40;;;;;;;;;;;;;;;;;;5050583;28;20297;-80
2023/01/13 09:09:06;;;;;;;;;;;;;;;;;;5042632;28;19968;-80
2023/01/13 09:14:36;;;;;;;;;;;;;;;;;;5054615;28;19909;-79
2023/01/13 09:17:02;;;;;;;;;;;;;;;;;;5056369;28;20018;-79
2023/01/13 09:19:28;;;;;;;;;;;;;;;;;;5049165;28;19921;-78
2023/01/13 09:21:54;;;;;;;;;;;;;;;;;;5056204;28;19914;-80
2023/01/13 09:24:20;;;;;;;;;;;;;;;;;;5030513;28;19917;-79
2023/01/13 09:26:46;;;;;;;;;;;;;;;;;;5043250;28;20008;-78
2023/01/13 09:29:12;;;;;;;;;;;;;;;;;;5038264;28;19909;-78
2023/01/13 09:31:38;;;;;;;;;;;;;;;;;;5038428;28;19921;-79
2023/01/13 09:36:49;;;;;;;;;;;;;;;;;;5057296;28;19915;-78
2023/01/13 09:39:15;;;;;;;;;;;;;;;;;;5066858;28;19980;-81
2023/01/13 09:44:25;;;;;;;;;;;;;;;;;;5035943;28;19936;-78
2023/01/13 09:46:52;;;;;;;;;;;;;;;;;;5026524;28;19909;-80
2023/01/13 09:49:19;;;;;;;;;;;;;;;;;;5024283;28;19921;-81
2023/01/13 09:51:45;;;;;;;;;;;;;;;;;;5023973;28;19917;-78
2023/01/13 09:54:11;;;;;;;;;;;;;;;;;;5024769;28;19913;-79
2023/01/13 09:56:37;;;;;;;;;;;;;;;;;;5025111;28;19909;-79
2023/01/13 09:59:03;;;;;;;;;;;;;;;;;;5028619;28;19928;-80
2023/01/13 10:01:29;;;;;;;;;;;;;;;;;;5030023;28;20004;-79
2023/01/13 10:03:55;;;;;;;;;;;;;;;;;;5031451;28;19909;-79
2023/01/13 10:06:21;;;;;;;;;;;;;;;;;;5035209;28;19922;-80
2023/01/13 10:08:47;;;;;;;;;;;;;;;;;;5049243;28;19925;-79
2023/01/13 10:13:13;;;;;;;;;;;;;;;;;;5047143;28;19925;-80
2023/01/13 10:13:59;;;;;;;;;;;;;;;;;;5048015;28;19909;-80
2023/01/13 10:16:25;;;;;;;;;;;;;;;;;;5032231;28;19925;-81
2023/01/13 10:18:51;;;;;;;;;;;;;;;;;;5028699;28;20004;-80
2023/01/13 10:21:16;;;;;;;;;;;;;;;;;;5030114;28;19914;-81
2023/01/13 10:23:42;;;;;;;;;;;;;;;;;;5028741;28;19910;-79
2023/01/13 10:26:08;;;;;;;;;;;;;;;;;;5027879;28;19902;-79
2023/01/13 10:28:34;;;;;;;;;;;;;;;;;;5027740;28;20000;-79
2023/01/13 10:31:00;;;;;;;;;;;;;;;;;;5026412;28;19952;-79
2023/01/13 10:33:29;;;;;;;;;;;;;;;;;;5026350;28;19913;-79
2023/01/13 10:35:55;;;;;;;;;;;;;;;;;;5034231;28;19917;-80
2023/01/13 10:38:21;;;;;;;;;;;;;;;;;;5048218;28;19949;-79
2023/01/13 10:40:47;;;;;;;;;;;;;;;;;;5045736;28;19909;-80
2023/01/13 10:43:13;;;;;;;;;;;;;;;;;;5043660;28;19932;-80
2023/01/13 10:45:39;;;;;;;;;;;;;;;;;;5043532;28;20386;-80
2023/01/13 10:48:05;;;;;;;;;;;;;;;;;;5024776;28;19933;-79
2023/01/13 10:50:31;;;;;;;;;;;;;;;;;;5024261;28;20008;-78
2023/01/13 10:52:57;;;;;;;;;;;;;;;;;;5021691;28;19918;-81
2023/01/13 10:55:23;;;;;;;;;;;;;;;;;;5026902;28;19909;-78
2023/01/13 10:57:49;;;;;;;;;;;;;;;;;;5027141;28;19937;-81
2023/01/13 11:00:15;;;;;;;;;;;;;;;;;;5025285;28;19914;-79
2023/01/13 11:02:41;;;;;;;;;;;;;;;;;;5033392;28;19929;-78
2023/01/13 11:05:07;;;;;;;;;;;;;;;;;;5037612;28;19965;-80
2023/01/13 11:07:33;;;;;;;;;;;;;;;;;;5035966;28;19920;-80
2023/01/13 11:09:59;;;;;;;;;;;;;;;;;;5027405;28;20016;-80
2023/01/13 11:12:25;;;;;;;;;;;;;;;;;;5027055;28;19918;-79
2023/01/13 11:14:51;;;;;;;;;;;;;;;;;;5025745;28;19937;-78
2023/01/13 11:17:17;;;;;;;;;;;;;;;;;;5025404;28;19998;-79
2023/01/13 11:19:43;;;;;;;;;;;;;;;;;;5025459;28;20028;-79
2023/01/13 11:22:09;;;;;;;;;;;;;;;;;;5028937;28;19913;-79
2023/01/13 11:24:35;;;;;;;;;;;;;;;;;;5059993;28;20008;-80
2023/01/13 11:27:01;;;;;;;;;;;;;;;;;;5027554;28;19909;-80
2023/01/13 11:29:27;;;;;;;;;;;;;;;;;;5023847;28;19929;-80
2023/01/13 11:31:53;;;;;;;;;;;;;;;;;;5027315;28;19922;-79
2023/01/13 11:34:19;;;;;;;;;;;;;;;;;;5033878;28;19917;-80
2023/01/13 11:36:45;;;;;;;;;;;;;;;;;;5039686;28;19914;-79
2023/01/13 11:39:11;;;;;;;;;;;;;;;;;;5058140;28;20311;-80
2023/01/13 11:41:37;;;;;;;;;;;;;;;;;;5027378;28;19949;-80
2023/01/13 11:44:03;;;;;;;;;;;;;;;;;;5030008;28;19960;-79
2023/01/13 11:46:31;;;;;;;;;;;;;;;;;;5030422;28;19914;-80
2023/01/13 11:48:57;;;;;;;;;;;;;;;;;;5027865;28;19973;-78
2023/01/13 11:51:23;;;;;;;;;;;;;;;;;;5028072;28;19929;-79
2023/01/13 11:53:49;;;;;;;;;;;;;;;;;;5028017;28;19897;-79
2023/01/13 11:56:15;;;;;;;;;;;;;;;;;;5029979;28;19909;-78
2023/01/13 11:58:41;;;;;;;;;;;;;;;;;;5028836;28;19909;-79
2023/01/13 12:01:07;;;;;;;;;;;;;;;;;;5026294;28;20374;-79
2023/01/13 12:03:34;;;;;;;;;;;;;;;;;;5028059;28;19914;-79
2023/01/13 12:06:01;;;;;;;;;;;;;;;;;;5044521;28;19913;-80
2023/01/13 12:08:27;;;;;;;;;;;;;;;;;;5045111;28;20320;-80
2023/01/13 12:10:53;;;;;;;;;;;;;;;;;;5044192;28;19917;-80
2023/01/13 12:13:19;;;;;;;;;;;;;;;;;;5044068;28;19913;-81
2023/01/13 12:15:45;;;;;;;;;;;;;;;;;;5043143;28;19923;-80
2023/01/13 12:18:11;;;;;;;;;;;;;;;;;;5039369;28;19901;-81
2023/01/13 12:20:37;;;;;;;;;;;;;;;;;;5045092;28;19967;-81
2023/01/13 12:23:03;;;;;;;;;;;;;;;;;;5044979;28;19913;-81
2023/01/13 12:25:29;;;;;;;;;;;;;;;;;;5055860;28;19914;-79
2023/01/13 12:27:55;;;;;;;;;;;;;;;;;;5036928;28;19917;-79
2023/01/13 12:30:21;;;;;;;;;;;;;;;;;;5028612;28;19925;-79
2023/01/13 12:32:47;;;;;;;;;;;;;;;;;;5030094;28;19909;-80
2023/01/13 12:37:44;;;;;;;;;;;;;;;;;;5032205;28;19893;-81
2023/01/13 12:40:10;;;;;;;;;;;;;;;;;;5029457;28;19953;-80
2023/01/13 12:45:24;;;;;;;;;;;;;;;;;;5028655;28;19920;-80
2023/01/13 12:47:50;;;;;;;;;;;;;;;;;;5025532;28;19910;-80
2023/01/13 12:50:16;;;;;;;;;;;;;;;;;;5018390;28;19939;-79
2023/01/13 12:52:41;;;;;;;;;;;;;;;;;;5035360;28;20004;-78
2023/01/13 12:55:07;;;;;;;;;;;;;;;;;;5031544;28;19913;-80
2023/01/13 12:57:33;;;;;;;;;;;;;;;;;;5035408;28;19960;-81
2023/01/13 12:59:59;;;;;;;;;;;;;;;;;;5035793;28;19902;-85
2023/01/13 13:02:25;;;;;;;;;;;;;;;;;;5035513;28;19921;-84
2023/01/13 13:04:51;;;;;;;;;;;;;;;;;;5026242;28;20384;-81
2023/01/13 13:07:17;;;;;;;;;;;;;;;;;;5053114;28;19914;-82
2023/01/13 13:09:43;;;;;;;;;;;;;;;;;;5051893;28;20306;-81
2023/01/13 13:14:35;;;;;;;;;;;;;;;;;;5021270;28;20026;-81
2023/01/13 13:17:01;;;;;;;;;;;;;;;;;;5022855;28;19918;-80
2023/01/13 13:19:27;;;;;;;;;;;;;;;;;;5056803;28;19937;-81
2023/01/13 13:21:53;;;;;;;;;;;;;;;;;;5023425;28;19922;-81
2023/01/13 13:24:19;;;;;;;;;;;;;;;;;;5029238;28;20004;-81
2023/01/13 13:26:45;;;;;;;;;;;;;;;;;;5028355;28;19920;-81
2023/01/13 13:29:11;;;;;;;;;;;;;;;;;;5032189;28;19973;-81
2023/01/13 13:31:37;;;;;;;;;;;;;;;;;;5031432;28;19925;-82
2023/01/13 13:34:03;;;;;;;;;;;;;;;;;;5037732;28;19908;-81
2023/01/13 13:36:29;;;;;;;;;;;;;;;;;;5072426;28;19902;-81
2023/01/13 13:47:10;;;;;;;;;;;;;;;;;;5036245;28;19915;-81
2023/01/13 13:49:38;;;;;;;;;;;;;;;;;;5037754;28;19918;-81
2023/01/13 13:52:05;;;;;;;;;;;;;;;;;;5033429;28;20322;-82
2023/01/13 13:54:31;;;;;;;;;;;;;;;;;;5025677;28;19909;-82
2023/01/13 13:56:58;;;;;;;;;;;;;;;;;;5025575;28;19910;-82
2023/01/13 13:59:24;;;;;;;;;;;;;;;;;;5024043;28;19964;-84
2023/01/13 14:01:59;;;;;;;;;;;;;;;;;;5025661;28;19909;-82
2023/01/13 14:04:25;;;;;;;;;;;;;;;;;;5033150;28;19935;-82
2023/01/13 14:06:51;;;;;;;;;;;;;;;;;;5031506;28;19917;-83
2023/01/13 14:09:17;;;;;;;;;;;;;;;;;;5025008;28;19909;-81
2023/01/13 14:11:43;;;;;;;;;;;;;;;;;;5026654;28;20039;-82
2023/01/13 14:14:13;;;;;;;;;;;11.20;71.60;;;;;;5024967;28;20009;-82
2023/01/13 14:16:39;;;;;;;;;;;10.70;73.40;;;;;;5023512;28;20408;-82
2023/01/13 14:19:05;;;;;;;;;;;9.30;89.30;;;;;;5023695;28;19937;-82
2023/01/13 14:21:30;;;;;;;;;;;8.00;94.90;;;;;;5027782;28;19916;-81
2023/01/13 14:24:04;;;;;;;;;;;7.20;98.80;;;;;;5022337;28;19916;-84
2023/01/13 14:26:30;;;;;;;;;;;6.60;99.90;;;;;;5021465;28;20274;-81
2023/01/13 14:28:57;;;;;;;;;;;6.20;99.90;;;;;;5021349;28;20000;-83
2023/01/13 14:31:23;;;;;;;;;;;6.00;99.90;;;;;;5021165;28;19964;-82
2023/01/13 14:33:56;;;;;;;;;;;5.90;99.90;;;;;;5021679;28;19917;-82
2023/01/13 14:36:22;;;;;;;;;;;5.70;99.90;;;;;;5032627;28;19917;-83
2023/01/13 14:39:10;;;;;;;;;;;5.70;99.90;;;;;;5042698;28;20351;-81
2023/01/13 14:41:41;;;;;;;;;;;5.70;99.90;;;;;;5040478;28;20327;-83
2023/01/13 14:44:14;;;;;;;;;;;5.60;99.90;;;;;;5034394;28;19910;-83
2023/01/13 14:46:42;;;;;;;;;;;5.60;99.90;;;;;;5020043;28;19916;-82
2023/01/13 14:49:19;;;;;;;;;;;5.60;99.90;;;;;;5021599;28;19920;-81
2023/01/13 14:51:45;;;;;;;;;;;5.80;99.90;;;;;;5021476;28;19964;-83
2023/01/13 14:54:29;;;;;;;;;;;5.90;99.90;;;;;;5020004;28;20314;-82
2023/01/13 14:57:21;;;;;;;;;;;5.90;99.90;;;;;;5020883;28;19898;-81
2023/01/13 14:59:50;;;;;;;;;;;6.00;99.90;;;;;;5017724;28;19910;-83
2023/01/13 15:02:22;;;;;;;;;;;6.10;99.90;;;;;;5022535;28;19897;-82
2023/01/13 15:04:47;;;;;;;;;;;6.10;99.90;;;;;;5023712;28;20171;-81
2023/01/13 15:07:21;;;;;;;;;;;6.10;99.90;;;;;;5026025;28;19898;-82
2023/01/13 15:09:51;;;;;;;;;;;6.10;99.90;;;;;;5019816;28;19910;-81
2023/01/13 15:12:22;;;;;;;;;;;6.10;99.90;;;;;;5021967;28;19913;-82
2023/01/13 15:14:51;;;;;;;;;;;6.10;99.90;;;;;;5018836;28;19921;-81
2023/01/13 15:17:16;;;;;;;;;;;6.10;99.90;;;;;;5019724;28;19910;-81
2023/01/13 15:19:42;;;;;;;;;;;6.10;99.90;;;;;;5020438;28;20040;-83
2023/01/13 15:22:08;;;;;;;;;;;6.10;99.90;;;;;;5019920;28;19909;-80
2023/01/13 15:24:33;;;;;;;;;;;6.20;99.90;;;;;;5018820;28;19977;-78
2023/01/13 15:26:59;;;;;;;;;;;6.10;99.90;;;;;;5021484;28;20367;-79
2023/01/13 15:29:24;;;;;;;;;;;6.00;99.90;;;;;;5018179;28;20377;-79
2023/01/13 15:31:50;;;;;;;;;;;5.90;99.90;;;;;;5019131;28;20433;-80
2023/01/13 15:34:15;;;;;;;;;;;5.90;99.90;;;;;;5028154;28;19916;-78
2023/01/13 15:36:41;;;;;;;;;;;5.80;99.90;;;;;;5048574;28;19944;-78
2023/01/13 15:39:10;;;;;;;;;;;5.80;99.90;;;;;;5040045;28;19971;-80
2023/01/13 15:47:05;;;;;;;;;;;5.80;99.90;;;;;;5039125;28;19916;-79
2023/01/13 15:49:33;;;;;;;;;;;5.70;99.90;;;;;;5037954;28;19909;-81
2023/01/13 15:52:20;;;;;;;;;;;5.70;99.90;;;;;;5038379;28;19917;-79
2023/01/13 15:54:45;;;;;;;;;;;5.60;99.90;;;;;;5037347;28;19909;-79
2023/01/13 15:57:22;;;;;;;;;;;5.50;99.90;;;;;;5028533;28;20264;-78
2023/01/13 15:59:48;;;;;;;;;;;5.40;99.90;;;;;;5020637;28;19925;-79
2023/01/13 16:02:17;;;;;;;;;;;5.40;99.90;;;;;;5018501;28;19917;-78
2023/01/13 16:04:43;;;;;;;;;;;5.30;99.90;;;;;;5018419;28;19999;-79
2023/01/13 16:07:12;;;;;;;;;;;5.30;99.90;;;;;;5024656;28;19941;-79
2023/01/13 16:09:38;;;;;;;;;;;5.30;99.90;;;;;;5018156;28;19970;-78
2023/01/13 16:12:03;;;;;;;;;;;5.30;99.90;;;;;;5017379;28;19953;-79
2023/01/13 16:14:29;;;;;;;;;;;5.30;99.90;;;;;;5019636;28;19941;-78
2023/01/13 16:16:54;;;;;;;;;;;5.40;99.90;;;;;;5017965;28;19925;-81
2023/01/13 16:19:20;;;;;;;;;;;5.50;99.90;;;;;;5017063;28;20023;-79
2023/01/13 16:21:45;;;;;;;;;;;5.60;99.90;;;;;;5017626;28;20000;-79
2023/01/13 16:24:11;;;;;;;;;;;5.70;99.90;;;;;;5018080;28;19910;-79
2023/01/13 16:26:37;;;;;;;;;;;5.70;99.90;;;;;;5018296;28;20359;-79
2023/01/13 16:29:04;;;;;;;;;;;5.80;99.90;;;;;;5018990;28;19913;-80
2023/01/13 16:31:31;;;;;;;;;;;5.80;99.90;;;;;;5016364;28;19928;-79
2023/01/13 16:33:58;;;;;;;;;;;5.80;99.90;;;;;;5020904;28;19909;-80
2023/01/13 16:36:23;;;;;;;;;;;5.90;99.90;;;;;;5024056;28;20282;-80
2023/01/13 16:38:50;;;;;;;;;;;6.00;99.90;;;;;;5017502;28;19924;-79
2023/01/13 16:41:16;;;;;;;;;;;6.00;99.90;;;;;;5033095;28;19972;-80
2023/01/13 16:43:41;;;;;;;;;;;6.00;99.90;;;;;;5018178;28;19972;-80
2023/01/13 16:46:18;;;;;;;;;;;6.00;99.90;;;;;;5018735;28;20008;-79
2023/01/13 16:48:44;;;;;;;;;;;6.00;99.90;;;;;;5017460;28;20355;-77
2023/01/13 16:51:09;;;;;;;;;;;6.10;99.90;;;;;;5012423;28;19922;-79
2023/01/13 16:53:35;;;;;;;;;;;6.00;99.90;;;;;;5019255;28;19929;-79
2023/01/13 16:56:00;;;;;;;;;;;6.00;99.90;;;;;;5022726;28;19920;-80
2023/01/13 16:58:26;;;;;;;;;;;6.00;99.90;;;;;;5054277;28;19913;-81
2023/01/13 17:00:51;;;;;;;;;;;6.00;99.90;;;;;;5023960;28;19914;-78
2023/01/13 17:03:17;;;;;;;;;;;6.00;99.90;;;;;;5029560;28;19932;-78
2023/01/13 17:05:44;;;;;;;;;;;6.10;99.90;;;;;;5040898;28;19917;-77
2023/01/13 17:08:16;;;;;;;;;;;6.10;99.90;;;;;;5052874;28;19973;-78
2023/01/13 17:11:03;;;;;;;;;;;6.10;99.90;;;;;;5026433;28;19949;-78
2023/01/13 17:13:28;;;;;;;;;;;6.10;99.90;;;;;;5027081;28;19948;-79
2023/01/13 17:15:54;;;;;;;;;;;6.00;99.90;;;;;;5030354;28;19917;-79